createdAt,value
2018-12-21T00:00:49.803Z,23.20
2018-12-21T00:03:17.494Z,23.20
2018-12-21T00:05:45.236Z,23.20
2018-12-21T00:08:12.689Z,23.20
2018-12-21T00:10:40.173Z,23.20
2018-12-21T00:13:07.621Z,23.20
2018-12-21T00:15:35.192Z,23.20
2018-12-21T00:18:02.761Z,23.20
2018-12-21T00:20:31.245Z,23.10
2018-12-21T00:22:58.704Z,23.10
2018-12-21T00:25:26.165Z,23.10
2018-12-21T00:27:53.767Z,23.10
2018-12-21T00:30:22.632Z,23.10
2018-12-21T00:32:55.701Z,23.10
2018-12-21T00:35:28.897Z,23.10
2018-12-21T00:38:02.339Z,23.10
2018-12-21T00:40:35.635Z,23.10
2018-12-21T00:43:21.597Z,23.10
2018-12-21T00:45:50.970Z,23.10
2018-12-21T00:48:18.615Z,23.10
2018-12-21T00:50:46.061Z,23.10
2018-12-21T00:53:13.644Z,23.00
2018-12-21T00:55:41.299Z,23.00
2018-12-21T00:58:08.863Z,23.00
2018-12-21T01:00:36.313Z,23.00
2018-12-21T01:03:03.792Z,23.00
2018-12-21T01:05:31.565Z,23.00
2018-12-21T01:07:59.323Z,23.00
2018-12-21T01:10:26.785Z,23.00
2018-12-21T01:12:54.356Z,23.00
2018-12-21T01:15:21.864Z,23.00
2018-12-21T01:17:49.460Z,23.00
2018-12-21T01:20:17.111Z,23.00
2018-12-21T01:22:44.685Z,23.00
2018-12-21T01:25:12.317Z,23.00
2018-12-21T01:27:39.789Z,23.00
2018-12-21T01:30:07.241Z,23.00
2018-12-21T01:32:34.988Z,23.00
2018-12-21T01:35:02.404Z,23.00
2018-12-21T01:37:29.963Z,23.00
2018-12-21T01:39:57.512Z,23.00
2018-12-21T01:42:24.979Z,23.00
2018-12-21T01:44:52.608Z,23.00
2018-12-21T01:47:20.056Z,23.00
2018-12-21T01:49:47.656Z,23.00
2018-12-21T01:52:15.109Z,22.90
2018-12-21T01:54:42.572Z,23.00
2018-12-21T01:57:10.124Z,22.90
2018-12-21T01:59:37.785Z,22.90
2018-12-21T02:02:05.241Z,22.90
2018-12-21T02:04:32.701Z,22.90
2018-12-21T02:07:00.328Z,22.90
2018-12-21T02:09:27.972Z,22.90
2018-12-21T02:11:55.545Z,22.90
2018-12-21T02:14:23.029Z,22.90
2018-12-21T02:16:50.480Z,22.90
2018-12-21T02:19:18.069Z,22.90
2018-12-21T02:21:45.829Z,22.90
2018-12-21T02:24:13.291Z,22.90
2018-12-21T02:26:41.060Z,22.90
2018-12-21T02:29:08.849Z,22.90
2018-12-21T02:31:36.599Z,22.90
2018-12-21T02:34:04.372Z,22.90
2018-12-21T02:36:32.226Z,22.90
2018-12-21T02:38:59.884Z,22.90
2018-12-21T02:41:27.532Z,22.90
2018-12-21T02:43:55.014Z,22.80
2018-12-21T02:46:22.479Z,22.90
2018-12-21T02:48:49.933Z,22.90
2018-12-21T02:51:17.392Z,22.90
2018-12-21T02:53:44.935Z,22.80
2018-12-21T02:56:12.710Z,22.80
2018-12-21T02:58:40.205Z,22.80
2018-12-21T03:01:07.930Z,22.80
2018-12-21T03:03:35.502Z,22.80
2018-12-21T03:06:03.153Z,22.80
2018-12-21T03:08:30.636Z,22.90
2018-12-21T03:10:58.382Z,22.80
2018-12-21T03:13:25.833Z,22.80
2018-12-21T03:15:53.598Z,22.80
2018-12-21T03:18:21.063Z,22.80
2018-12-21T03:20:48.516Z,22.80
2018-12-21T03:23:15.962Z,22.80
2018-12-21T03:25:43.455Z,22.80
2018-12-21T03:28:10.894Z,22.80
2018-12-21T03:30:38.659Z,22.80
2018-12-21T03:33:06.310Z,22.80
2018-12-21T03:35:34.041Z,22.80
2018-12-21T03:38:01.658Z,22.80
2018-12-21T03:40:29.305Z,22.80
2018-12-21T03:42:56.902Z,22.80
2018-12-21T03:45:24.669Z,22.80
2018-12-21T03:47:52.279Z,22.80
2018-12-21T03:50:19.860Z,22.80
2018-12-21T03:52:47.520Z,22.80
2018-12-21T03:55:15.082Z,22.80
2018-12-21T03:57:42.846Z,22.80
2018-12-21T04:00:10.428Z,22.80
2018-12-21T04:02:37.967Z,22.80
2018-12-21T04:05:05.544Z,22.80
2018-12-21T04:07:33.169Z,22.80
2018-12-21T04:10:00.753Z,22.80
2018-12-21T04:12:28.236Z,22.80
2018-12-21T04:14:55.993Z,22.80
2018-12-21T04:17:23.433Z,22.80
2018-12-21T04:19:51.090Z,22.80
2018-12-21T04:22:18.667Z,22.80
2018-12-21T04:24:46.430Z,22.70
2018-12-21T04:27:14.164Z,22.70
2018-12-21T04:29:41.644Z,22.80
2018-12-21T04:32:09.322Z,22.80
2018-12-21T04:34:36.885Z,22.70
2018-12-21T04:37:04.373Z,22.70
2018-12-21T04:39:31.965Z,22.70
2018-12-21T04:41:59.574Z,22.70
2018-12-21T04:44:27.121Z,22.70
2018-12-21T04:46:54.675Z,22.70
2018-12-21T04:49:22.217Z,22.70
2018-12-21T04:51:50.032Z,22.70
2018-12-21T04:54:17.460Z,22.70
2018-12-21T04:56:45.223Z,22.70
2018-12-21T04:59:12.726Z,22.70
2018-12-21T05:01:40.464Z,22.70
2018-12-21T05:04:08.336Z,22.70
2018-12-21T05:06:36.215Z,22.70
2018-12-21T05:09:05.450Z,22.70
2018-12-21T05:11:33.099Z,22.70
2018-12-21T05:14:00.521Z,22.70
2018-12-21T05:16:28.022Z,22.70
2018-12-21T05:18:55.511Z,22.70
2018-12-21T05:21:23.177Z,22.70
2018-12-21T05:23:50.967Z,22.70
2018-12-21T05:26:18.730Z,22.70
2018-12-21T05:28:46.344Z,22.70
2018-12-21T05:31:13.861Z,22.70
2018-12-21T05:33:41.466Z,22.70
2018-12-21T05:36:09.032Z,22.70
2018-12-21T05:38:36.525Z,22.70
2018-12-21T05:41:04.082Z,22.70
2018-12-21T05:43:31.858Z,22.70
2018-12-21T05:45:59.590Z,22.70
2018-12-21T05:48:27.236Z,22.70
2018-12-21T05:50:54.738Z,22.70
2018-12-21T05:53:22.298Z,22.70
2018-12-21T05:55:50.211Z,22.70
2018-12-21T05:58:17.809Z,22.70
2018-12-21T06:00:45.578Z,22.60
2018-12-21T06:03:13.361Z,22.60
2018-12-21T06:05:41.142Z,22.60
2018-12-21T06:08:08.950Z,22.60
2018-12-21T06:10:36.495Z,22.60
2018-12-21T06:13:04.129Z,22.60
2018-12-21T06:15:31.868Z,22.60
2018-12-21T06:17:59.593Z,22.60
2018-12-21T06:20:27.557Z,22.60
2018-12-21T06:22:55.020Z,22.60
2018-12-21T06:25:22.566Z,22.60
2018-12-21T06:27:50.378Z,22.60
2018-12-21T06:30:17.845Z,22.60
2018-12-21T06:32:45.329Z,22.60
2018-12-21T06:35:12.801Z,22.60
2018-12-21T06:37:40.397Z,22.60
2018-12-21T06:40:07.998Z,22.60
2018-12-21T06:42:35.609Z,22.60
2018-12-21T06:45:03.136Z,22.60
2018-12-21T06:47:30.581Z,22.60
2018-12-21T06:49:58.118Z,22.60
2018-12-21T06:52:25.576Z,22.70
2018-12-21T06:54:53.050Z,22.70
2018-12-21T06:57:20.638Z,22.70
2018-12-21T06:59:48.297Z,22.70
2018-12-21T07:02:16.025Z,22.80
2018-12-21T07:04:43.582Z,22.80
2018-12-21T07:07:11.249Z,22.80
2018-12-21T07:09:38.720Z,22.80
2018-12-21T07:12:06.349Z,22.80
2018-12-21T07:14:33.855Z,22.90
2018-12-21T07:17:01.415Z,22.90
2018-12-21T07:19:29.046Z,22.90
2018-12-21T07:21:56.641Z,22.90
2018-12-21T07:24:24.441Z,22.90
2018-12-21T07:26:52.149Z,22.90
2018-12-21T07:29:20.789Z,22.90
2018-12-21T07:31:48.595Z,22.90
2018-12-21T07:34:16.052Z,22.90
2018-12-21T07:36:43.512Z,22.90
2018-12-21T07:39:10.993Z,22.90
2018-12-21T07:41:38.732Z,22.90
2018-12-21T07:44:06.503Z,22.90
2018-12-21T07:46:34.265Z,22.90
2018-12-21T07:49:01.716Z,22.90
2018-12-21T07:51:29.188Z,22.90
2018-12-21T07:53:56.989Z,22.90
2018-12-21T07:56:24.621Z,22.80
2018-12-21T07:58:57.184Z,22.80
2018-12-21T08:01:21.773Z,22.80
2018-12-21T08:03:49.234Z,22.80
2018-12-21T08:06:16.698Z,22.80
2018-12-21T08:08:44.140Z,22.80
2018-12-21T08:11:11.623Z,22.70
2018-12-21T08:13:39.087Z,22.70
2018-12-21T08:16:06.612Z,22.70
2018-12-21T08:18:34.158Z,22.70
2018-12-21T08:21:01.786Z,22.70
2018-12-21T08:23:29.254Z,22.70
2018-12-21T08:25:56.877Z,22.70
2018-12-21T08:28:24.357Z,22.70
2018-12-21T08:30:51.897Z,22.70
2018-12-21T08:33:19.557Z,22.70
2018-12-21T08:35:47.023Z,22.70
2018-12-21T08:38:14.518Z,22.70
2018-12-21T08:40:41.969Z,22.70
2018-12-21T08:43:09.571Z,22.70
2018-12-21T08:45:37.257Z,22.70
2018-12-21T08:48:04.945Z,22.70
2018-12-21T08:50:32.542Z,22.70
2018-12-21T08:53:00.105Z,22.60
2018-12-21T08:55:27.632Z,22.60
2018-12-21T08:57:55.080Z,22.60
2018-12-21T09:00:22.545Z,22.60
2018-12-21T09:02:50.005Z,22.60
2018-12-21T09:05:17.464Z,22.60
2018-12-21T09:07:44.917Z,22.60
2018-12-21T09:10:12.358Z,22.60
2018-12-21T09:12:39.836Z,22.60
2018-12-21T09:15:09.926Z,22.60
2018-12-21T09:17:37.602Z,22.60
2018-12-21T09:20:08.902Z,22.60
2018-12-21T09:22:36.437Z,22.60
2018-12-21T09:25:04.897Z,22.60
2018-12-21T09:27:32.649Z,22.60
2018-12-21T09:30:00.351Z,22.60
2018-12-21T09:32:27.887Z,22.60
2018-12-21T09:34:55.510Z,22.60
2018-12-21T09:37:23.105Z,22.60
2018-12-21T09:39:50.742Z,22.60
2018-12-21T09:42:18.347Z,22.60
2018-12-21T09:44:52.497Z,22.60
2018-12-21T09:47:15.685Z,22.60
2018-12-21T09:49:43.153Z,22.60
2018-12-21T09:52:10.789Z,22.60
2018-12-21T09:54:38.337Z,22.60
2018-12-21T09:57:05.805Z,22.60
2018-12-21T09:59:33.341Z,22.50
2018-12-21T10:02:01.045Z,22.60
2018-12-21T10:04:28.827Z,22.50
2018-12-21T10:06:56.292Z,22.60
2018-12-21T10:09:24.033Z,22.60
2018-12-21T10:11:51.661Z,22.50
2018-12-21T10:14:19.209Z,22.60
2018-12-21T10:16:47.058Z,22.50
2018-12-21T10:19:14.695Z,22.50
2018-12-21T10:21:42.186Z,22.50
2018-12-21T10:24:18.331Z,22.50
2018-12-21T10:26:39.342Z,22.50
2018-12-21T10:29:07.085Z,22.50
2018-12-21T10:31:34.542Z,22.50
2018-12-21T10:34:02.009Z,22.50
2018-12-21T10:36:29.775Z,22.50
2018-12-21T10:38:57.224Z,22.50
2018-12-21T10:41:24.988Z,22.50
2018-12-21T10:43:52.444Z,22.40
2018-12-21T10:46:20.081Z,22.40
2018-12-21T10:48:47.940Z,22.40
2018-12-21T10:51:15.364Z,22.40
2018-12-21T10:53:46.507Z,22.50
2018-12-21T10:56:12.420Z,22.40
2018-12-21T10:58:40.231Z,22.40
2018-12-21T11:01:07.753Z,22.40
2018-12-21T11:03:35.413Z,22.50
2018-12-21T11:06:02.876Z,22.50
2018-12-21T11:08:30.328Z,22.40
2018-12-21T11:10:58.175Z,22.50
2018-12-21T11:13:25.661Z,22.50
2018-12-21T11:15:53.393Z,22.50
2018-12-21T11:18:20.862Z,22.50
2018-12-21T11:20:48.509Z,22.50
2018-12-21T11:23:16.004Z,22.40
2018-12-21T11:25:43.553Z,22.40
2018-12-21T11:28:11.259Z,22.40
2018-12-21T11:30:38.761Z,22.40
2018-12-21T11:33:06.386Z,22.40
2018-12-21T11:35:33.993Z,22.40
2018-12-21T11:38:01.613Z,22.40
2018-12-21T11:40:29.113Z,22.40
2018-12-21T11:42:56.570Z,22.40
2018-12-21T11:45:24.125Z,22.40
2018-12-21T11:47:51.606Z,22.40
2018-12-21T11:50:19.140Z,22.40
2018-12-21T11:52:46.775Z,22.50
2018-12-21T11:55:14.219Z,22.50
2018-12-21T11:57:41.693Z,22.50
2018-12-21T12:00:09.487Z,22.50
2018-12-21T12:02:37.234Z,22.50
2018-12-21T12:05:05.714Z,22.50
2018-12-21T12:07:33.397Z,22.50
2018-12-21T12:10:01.030Z,22.50
2018-12-21T12:12:28.548Z,22.50
2018-12-21T12:14:55.969Z,22.60
2018-12-21T12:17:23.562Z,22.60
2018-12-21T12:19:51.109Z,22.60
2018-12-21T12:22:18.785Z,22.60
2018-12-21T12:24:52.765Z,22.60
2018-12-21T12:27:16.058Z,22.60
2018-12-21T12:29:43.586Z,22.60
2018-12-21T12:32:11.216Z,22.60
2018-12-21T12:34:38.717Z,22.60
2018-12-21T12:37:06.212Z,22.60
2018-12-21T12:39:33.747Z,22.60
2018-12-21T12:42:03.595Z,22.50
2018-12-21T12:44:31.109Z,22.60
2018-12-21T12:46:58.560Z,22.50
2018-12-21T12:49:27.941Z,22.50
2018-12-21T12:51:55.451Z,22.60
2018-12-21T12:54:23.002Z,22.50
2018-12-21T12:56:50.441Z,22.50
2018-12-21T12:59:17.905Z,22.50
2018-12-21T13:01:45.454Z,22.50
2018-12-21T13:04:13.258Z,22.50
2018-12-21T13:06:41.001Z,22.50
2018-12-21T13:09:08.764Z,22.50
2018-12-21T13:11:36.537Z,22.50
2018-12-21T13:14:04.313Z,22.50
2018-12-21T13:16:32.057Z,22.50
2018-12-21T13:18:59.726Z,22.60
2018-12-21T13:21:27.284Z,22.60
2018-12-21T13:26:28.059Z,22.70
2018-12-21T13:28:55.509Z,22.70
2018-12-21T13:31:22.985Z,22.80
2018-12-21T13:33:50.717Z,22.80
2018-12-21T13:36:18.189Z,22.90
2018-12-21T13:38:45.811Z,22.90
2018-12-21T13:41:13.563Z,23.00
2018-12-21T13:43:41.323Z,23.00
2018-12-21T13:46:08.952Z,23.10
2018-12-21T13:48:36.702Z,23.10
2018-12-21T13:51:04.386Z,23.10
2018-12-21T13:53:31.939Z,23.20
2018-12-21T13:55:59.679Z,23.20
2018-12-21T13:58:27.317Z,23.20
2018-12-21T14:00:54.827Z,23.20
2018-12-21T14:03:22.335Z,23.20
2018-12-21T14:05:49.825Z,23.20
2018-12-21T14:08:17.297Z,23.20
2018-12-21T14:10:45.044Z,23.20
2018-12-21T14:13:12.561Z,23.20
2018-12-21T14:15:40.267Z,23.20
2018-12-21T14:18:07.725Z,23.20
2018-12-21T14:20:35.489Z,23.20
2018-12-21T14:23:02.965Z,23.20
2018-12-21T14:25:30.704Z,23.20
2018-12-21T14:27:58.211Z,23.20
2018-12-21T14:30:25.942Z,23.20
2018-12-21T14:32:53.727Z,23.20
2018-12-21T14:35:21.177Z,23.20
2018-12-21T14:37:48.931Z,23.20
2018-12-21T14:40:16.557Z,23.30
2018-12-21T14:42:44.179Z,23.20
2018-12-21T14:45:11.667Z,23.30
2018-12-21T14:47:39.160Z,23.20
2018-12-21T14:50:07.865Z,23.30
2018-12-21T14:52:35.424Z,23.30
2018-12-21T14:55:04.239Z,23.30
2018-12-21T14:57:31.993Z,23.30
2018-12-21T14:59:59.741Z,23.30
2018-12-21T15:02:27.373Z,23.30
2018-12-21T15:04:54.880Z,23.30
2018-12-21T15:07:22.335Z,23.30
2018-12-21T15:09:49.840Z,23.30
2018-12-21T15:12:17.330Z,23.40
2018-12-21T15:14:44.797Z,23.40
2018-12-21T15:17:13.079Z,23.40
2018-12-21T15:19:40.565Z,23.50
2018-12-21T15:22:08.005Z,23.50
2018-12-21T15:24:35.610Z,23.50
2018-12-21T15:27:03.345Z,23.60
2018-12-21T15:29:31.084Z,23.60
2018-12-21T15:31:58.538Z,23.60
2018-12-21T15:34:25.988Z,23.50
2018-12-21T15:36:53.506Z,23.50
2018-12-21T15:39:21.245Z,23.50
2018-12-21T15:41:49.008Z,23.50
2018-12-21T15:44:16.756Z,23.50
2018-12-21T15:46:44.441Z,23.50
2018-12-21T15:49:12.601Z,23.50
2018-12-21T15:51:40.380Z,23.50
2018-12-21T15:54:08.130Z,23.50
2018-12-21T15:56:35.885Z,23.50
2018-12-21T15:59:03.337Z,23.40
2018-12-21T16:01:36.765Z,23.40
2018-12-21T16:04:00.665Z,23.50
2018-12-21T16:06:28.097Z,23.50
2018-12-21T16:08:55.969Z,23.50
2018-12-21T16:11:23.518Z,23.50
2018-12-21T16:13:51.122Z,23.50
2018-12-21T16:16:18.592Z,23.50
2018-12-21T16:18:46.118Z,23.50
2018-12-21T16:21:13.579Z,23.50
2018-12-21T16:23:43.017Z,23.50
2018-12-21T16:26:11.562Z,23.40
2018-12-21T16:28:39.236Z,23.50
2018-12-21T16:31:07.012Z,23.50
2018-12-21T16:33:37.067Z,23.50
2018-12-21T16:36:04.637Z,23.50
2018-12-21T16:38:33.087Z,23.40
2018-12-21T16:41:00.554Z,23.40
2018-12-21T16:43:28.110Z,23.40
2018-12-21T16:45:55.654Z,23.40
2018-12-21T16:48:23.133Z,23.40
2018-12-21T16:50:50.605Z,23.50
2018-12-21T16:53:18.397Z,23.50
2018-12-21T16:55:45.893Z,23.50
2018-12-21T16:58:13.399Z,23.60
2018-12-21T17:00:41.062Z,23.60
2018-12-21T17:03:15.634Z,23.60
2018-12-21T17:05:38.137Z,23.60
2018-12-21T17:08:05.687Z,23.60
2018-12-21T17:10:33.463Z,23.60
2018-12-21T17:13:00.921Z,23.60
2018-12-21T17:15:28.701Z,23.60
2018-12-21T17:17:56.458Z,23.50
2018-12-21T17:20:23.904Z,23.60
2018-12-21T17:22:51.389Z,23.60
2018-12-21T17:25:19.158Z,23.60
2018-12-21T17:27:46.890Z,23.60
2018-12-21T17:30:14.344Z,23.60
2018-12-21T17:32:41.864Z,23.60
2018-12-21T17:35:09.568Z,23.70
2018-12-21T17:37:37.017Z,23.70
2018-12-21T17:40:06.723Z,23.70
2018-12-21T17:42:34.427Z,23.70
2018-12-21T17:45:02.996Z,23.70
2018-12-21T17:47:30.583Z,23.70
2018-12-21T17:49:58.320Z,23.70
2018-12-21T17:52:26.385Z,23.70
2018-12-21T17:54:53.828Z,23.70
2018-12-21T17:57:21.284Z,23.70
2018-12-21T17:59:48.881Z,23.70
2018-12-21T18:02:16.429Z,23.80
2018-12-21T18:04:44.010Z,23.80
2018-12-21T18:07:11.679Z,23.80
2018-12-21T18:09:39.117Z,23.80
2018-12-21T18:12:06.606Z,23.80
2018-12-21T18:14:34.116Z,23.80
2018-12-21T18:17:01.895Z,23.80
2018-12-21T18:19:29.521Z,23.80
2018-12-21T18:21:57.101Z,23.80
2018-12-21T18:24:24.602Z,23.90
2018-12-21T18:26:52.049Z,23.90
2018-12-21T18:29:19.789Z,23.90
2018-12-21T18:31:50.369Z,23.90
2018-12-21T18:34:21.372Z,23.90
2018-12-21T18:36:48.963Z,23.90
2018-12-21T18:39:16.557Z,23.90
2018-12-21T18:41:44.105Z,23.90
2018-12-21T18:44:11.548Z,24.00
2018-12-21T18:46:39.047Z,24.00
2018-12-21T18:49:06.524Z,24.00
2018-12-21T18:51:33.995Z,24.00
2018-12-21T18:54:01.809Z,24.00
2018-12-21T18:56:30.469Z,24.00
2018-12-21T18:58:58.207Z,24.00
2018-12-21T19:01:25.957Z,24.00
2018-12-21T19:03:53.534Z,24.00
2018-12-21T19:06:21.824Z,23.90
2018-12-21T19:08:49.294Z,23.90
2018-12-21T19:11:16.953Z,23.90
2018-12-21T19:13:44.481Z,23.90
2018-12-21T19:16:12.219Z,23.80
2018-12-21T19:18:39.654Z,23.80
2018-12-21T19:21:07.110Z,23.80
2018-12-21T19:23:34.629Z,23.80
2018-12-21T19:26:02.433Z,23.80
2018-12-21T19:28:30.056Z,23.70
2018-12-21T19:30:57.631Z,23.70
2018-12-21T19:33:25.383Z,23.80
2018-12-21T19:35:53.161Z,23.70
2018-12-21T19:38:20.615Z,23.70
2018-12-21T19:40:48.074Z,23.70
2018-12-21T19:43:15.729Z,23.70
2018-12-21T19:45:43.293Z,23.70
2018-12-21T19:48:11.037Z,23.80
2018-12-21T19:50:38.569Z,23.80
2018-12-21T19:53:06.092Z,23.80
2018-12-21T19:55:38.341Z,23.80
2018-12-21T19:58:05.808Z,23.80
2018-12-21T20:00:33.601Z,23.70
2018-12-21T20:03:01.350Z,23.70
2018-12-21T20:05:28.802Z,23.70
2018-12-21T20:07:56.454Z,23.70
2018-12-21T20:10:23.962Z,23.70
2018-12-21T20:12:51.431Z,23.70
2018-12-21T20:15:18.960Z,23.70
2018-12-21T20:17:46.432Z,23.70
2018-12-21T20:20:14.178Z,23.70
2018-12-21T20:22:41.809Z,23.70
2018-12-21T20:25:09.314Z,23.70
2018-12-21T20:27:36.815Z,23.70
2018-12-21T20:30:07.702Z,23.70
2018-12-21T20:32:35.330Z,23.70
2018-12-21T20:35:03.226Z,23.70
2018-12-21T20:37:30.761Z,23.70
2018-12-21T20:39:58.229Z,23.70
2018-12-21T20:42:25.811Z,23.70
2018-12-21T20:44:53.269Z,23.70
2018-12-21T20:47:20.798Z,23.70
2018-12-21T20:49:48.482Z,23.70
2018-12-21T20:52:16.001Z,23.70
2018-12-21T20:54:43.466Z,23.70
2018-12-21T20:57:11.372Z,23.70
2018-12-21T20:59:39.616Z,23.70
2018-12-21T21:02:07.098Z,23.70
2018-12-21T21:04:34.857Z,23.70
2018-12-21T21:07:02.616Z,23.70
2018-12-21T21:09:30.053Z,23.70
2018-12-21T21:11:57.716Z,23.70
2018-12-21T21:14:25.195Z,23.70
2018-12-21T21:16:52.674Z,23.70
2018-12-21T21:19:20.214Z,23.70
2018-12-21T21:21:47.877Z,23.70
2018-12-21T21:24:15.308Z,23.70
2018-12-21T21:26:42.913Z,23.70
2018-12-21T21:29:10.367Z,23.80
2018-12-21T21:31:38.612Z,23.80
2018-12-21T21:34:06.076Z,23.80
2018-12-21T21:36:33.657Z,23.80
2018-12-21T21:39:01.104Z,23.80
2018-12-21T21:41:28.868Z,23.90
2018-12-21T21:43:57.128Z,23.90
2018-12-21T21:46:24.683Z,23.90
2018-12-21T21:48:52.182Z,23.80
2018-12-21T21:51:19.714Z,23.80
2018-12-21T21:53:47.394Z,23.40
2018-12-21T21:56:14.881Z,23.20
2018-12-21T21:58:42.536Z,23.20
2018-12-21T22:01:09.995Z,23.30
2018-12-21T22:03:37.448Z,23.30
2018-12-21T22:06:05.139Z,23.30
2018-12-21T22:08:32.768Z,23.40
2018-12-21T22:11:02.052Z,23.40
2018-12-21T22:13:30.014Z,23.50
2018-12-21T22:15:57.489Z,23.50
2018-12-21T22:18:24.953Z,23.50
2018-12-21T22:20:53.213Z,23.50
2018-12-21T22:23:21.713Z,23.50
2018-12-21T22:25:53.280Z,23.50
2018-12-21T22:28:18.796Z,23.50
2018-12-21T22:30:46.307Z,23.50
2018-12-21T22:33:13.805Z,23.50
2018-12-21T22:35:41.537Z,23.50
2018-12-21T22:38:09.201Z,23.40
2018-12-21T22:40:36.693Z,23.40
2018-12-21T22:43:04.221Z,23.40
2018-12-21T22:45:31.704Z,23.40
2018-12-21T22:47:59.153Z,23.40
2018-12-21T22:50:26.995Z,23.40
2018-12-21T22:52:54.806Z,23.40
2018-12-21T22:55:22.349Z,23.40
2018-12-21T22:57:56.416Z,23.40
2018-12-21T23:00:21.383Z,23.40
2018-12-21T23:02:48.985Z,23.40
2018-12-21T23:05:16.566Z,23.40
2018-12-21T23:07:44.246Z,23.40
2018-12-21T23:10:11.815Z,23.40
2018-12-21T23:12:39.449Z,23.30
2018-12-21T23:15:07.182Z,23.30
2018-12-21T23:17:34.619Z,23.30
2018-12-21T23:20:02.268Z,23.30
2018-12-21T23:22:29.733Z,23.30
2018-12-21T23:24:57.497Z,23.30
2018-12-21T23:27:24.990Z,23.30
2018-12-21T23:29:52.592Z,23.30
2018-12-21T23:32:20.148Z,23.30
2018-12-21T23:34:47.614Z,23.30
2018-12-21T23:37:15.373Z,23.30
2018-12-21T23:39:43.031Z,23.30
2018-12-21T23:42:10.616Z,23.30
2018-12-21T23:44:38.093Z,23.30
2018-12-21T23:47:05.680Z,23.30
2018-12-21T23:49:33.301Z,23.30
2018-12-21T23:52:01.671Z,23.30
2018-12-21T23:54:29.445Z,23.20
2018-12-21T23:56:57.043Z,23.20
2018-12-21T23:59:24.669Z,23.20
